Hubly, Illinois
Current Conditions -  °F | °C
As of 11:52 PM on Tuesday 25 Nov 2014 (Local Time) from KSPI Reporting Station
Clear Clear  
Wind Chill: 26°   Ceiling: Unl
Heat Index: 26°   Visibility: 10mi
Dew Point: 22°   Wind: 3mph
Humidity: 84%   Direction: 150°SSE
Pressure: 30.16"   Gusts: NA
Location:  40.0814°N, 89.6743°W
Report Text: KSPI 260552Z AUTO 15003KT 10SM CLR M03/M06 A3016 RMK AO2 SLP222 T10331056 11017 21050 400221050 56007
Loading
Personal Weather Stations






























Interactive Weather Map New forecast layout! Learn more

10-Day Weather Forecast

Advertisements
Track Severe Weather on mobile